Kirchberg-Wetter.de


Hier erfahren Sie, wie das Wetter wird...


WebCam am Fuchsberg more information WebCam am Fuchsberg


Thunder radar more information blitzortung!


Rain radar more information rain snow radar


Besuchen Sie unsere anderen Wetter Stationen:

Template documentation
and downloads

And another site



Es ist keine erhöhte Aufmerksamkeit aufgrund des Wetters notwendig.    Es gibt keine Warnungen.

METAR-Meldungen aus der Umgebung

   
EHVK - Volkel Rnlafb, Netherlands
Entfernung von der Station bis: SW 18 km
Aktualisierung: 20-01-2022 11:55
Bewölkt  
Bewölkt  
   Wind: NW 11.1 km/h
Wind: NW 11.1 km/h
Temperatur: 5°C
Gefühlt: 2°C
Taupunkt: 0°C
Luftfeuchte: 70%
Luftdruck: 1029 hPa
Bewölkt: Bewölkt
Sichtbarkeit: More than 10 km
Bewölkung: leicht bewölkt 4300 ft,
Teilweise bewölkt 5300 ft,
Bewölkt 5900 ft
EHVK 201055Z AUTO 31006KT 250V360 9999 FEW043 SCT053 OVC059 05/M00 Q1029 BLU
EDLV - Niederrhein, Germany
Entfernung von der Station bis: SO 25 km
Aktualisierung: 20-01-2022 11:50
Teilweise bewölkt  
Teilweise bewölkt  
   Wind: Westen 11.1 km/h
Wind: Westen 11.1 km/h
Temperatur: 4°C
Gefühlt: 1°C
Taupunkt: 1°C
Luftfeuchte: 81%
Luftdruck: 1028 hPa
Bewölkt: Teilweise bewölkt
Sichtbarkeit: 8 km
Bewölkung: Teilweise bewölkt 3700 ft
EDLV 201050Z 28006KT 250V310 8000 SCT037TCU 04/01 Q1028
EHDL - Deelen Rnlafb, Netherlands
Entfernung von der Station bis: N 35 km
Aktualisierung: 20-01-2022 11:55
Stark bewölkt  
Stark bewölkt  
   Wind: WNW 16.7 km/h
Wind: WNW 16.7 km/h
Temperatur: 4°C
Gefühlt: 0°C
Taupunkt: 1°C
Luftfeuchte: 81%
Luftdruck: 1028 hPa
Bewölkt: Stark bewölkt
Sichtbarkeit: More than 10 km
Bewölkung: leicht bewölkt 2300 ft,
Teilweise bewölkt 3300 ft,
Stark bewölkt 4000 ft
EHDL 201055Z AUTO 30009KT 260V020 9999 FEW023 SCT033 BKN040 04/01 Q1028 BLU
EHEH - Eindhoven Rnlafb, Netherlands
Entfernung von der Station bis: SW 48 km
Aktualisierung: 20-01-2022 11:55
Stark bewölkt  
Stark bewölkt  
   Wind: WNW 13 km/h
Wind: WNW 13 km/h
Temperatur: 5°C
Gefühlt: 2°C
Taupunkt: 1°C
Luftfeuchte: 76%
Luftdruck: 1030 hPa
Bewölkt: Stark bewölkt
Sichtbarkeit: More than 10 km
Bewölkung: Stark bewölkt 5500 ft
EHEH 201055Z AUTO 30007KT 240V350 9999 BKN055 05/01 Q1030 BLU TEMPO 4500 -SHRA
EHGR - Gilze-Rijen Rnla, Netherlands
Entfernung von der Station bis: WSW 70 km
Aktualisierung: 20-01-2022 11:55
Bewölkt  
Bewölkt  
   Wind: WNW 13 km/h
Wind: WNW 13 km/h
Temperatur: 5°C
Gefühlt: 2°C
Taupunkt: 0°C
Luftfeuchte: 70%
Luftdruck: 1030 hPa
Bewölkt: Bewölkt
Sichtbarkeit: More than 10 km
Bewölkung: leicht bewölkt 4000 ft,
Stark bewölkt 5000 ft,
Bewölkt 5500 ft
EHGR 201055Z AUTO 30007KT 270V340 9999 FEW040 BKN050 OVC055 05/00 Q1030 BLU TEMPO SCT020 BKN035
EBBL - Kleine-Brogel(Ba, Belgium
Entfernung von der Station bis: SSW 71 km
Aktualisierung: 20-01-2022 11:25
Stark bewölkt  
Stark bewölkt  
   Wind: Westen 9.3 km/h
Wind: Westen 9.3 km/h
Temperatur: 4°C
Gefühlt: 2°C
Taupunkt: 1°C
Luftfeuchte: 81%
Luftdruck: 1029 hPa
Bewölkt: Stark bewölkt
Sichtbarkeit: More than 10 km
Bewölkung: leicht bewölkt 3500 ft,
Stark bewölkt 5000 ft
EBBL 201025Z 28005KT 9999 FEW035 BKN050 04/01 Q1029 BLU BLU

Script entwickelt von  Saratoga-weather.org Angepasst für das Template von  Weerstation Leuven

Sie finden unser Wetter-Infos auch auf:

Weather Underground

WeatherlinkIP

Wetternetz-Sachsen

Von uns verwendete Ausrüstung:

Wetterstation
Davis Vantage Pro2 Plus

Wetterprogramm
Meteobridge

WetterComputer
TP-Link TL-MR3020

Davis Vantage Pro2 Plus

Meteobridge

TP-Link TL-MR3020